Ipswich, SD (57451)

8:43 AM CDT on July 31, 2014 (GMT -0500)
rural Roscoe (KSDROSCO2) Elev 1705 ft | 45.35 °N, 99.19 °W | Change Station

Current weather conditions updated 4 seconds ago

Clear
Clear
63.5 °F
Feels Like 63.5 °F
N
1.9
Wind Variable Wind from West
Gusts 2.0 mph

Today is forecast to be nearly the same temperature as yesterday.

Today
High -- | Low -- °F
--% Chance of Precip.
Yesterday
High -- | Low -- °F
Precip. -- in
6:19 AM 9:05 PM
Waxing Crescent, 18% visible
Pressure 30.08 in
Visibility 9.0 miles
Clouds Clear
Dew Point 61 °F
Humidity 93%
Rainfall 0.00 in
Snow Depth Not available.
UV 1 out of 12
Pollen 7.40 out of 12
Air Quality Not available.
Flu Activity Not available.
METAR KABR 311253Z AUTO 00000KT 9SM CLR 17/14 A3008

More Conditions Fewer Conditions

Pressure 30.08 in
Visibility 9.0 miles
Clouds Clear
Dew Point 61 °F
Humidity 93%
Rainfall 0.00 in
Snow Depth Not available.
UV 1 out of 12
Pollen 7.40 out of 12
Air Quality Not available.
Flu Activity Not available.
METAR KABR 311253Z AUTO 00000KT 9SM CLR 17/14 A3008

More Conditions Fewer Conditions

10-Day Weather Forecast

Almanac

Astronomy

Jul. 31, 2014 Rise Set
Actual Time 6:19 AM CDT 9:05 PM CDT
Civil Twilight 5:44 AM CDT 9:39 PM CDT
Nautical Twilight 5:01 AM CDT 10:22 PM CDT
Astronomical Twilight 4:10 AM CDT 11:12 PM CDT
Moon 11:03 AM CDT 11:01 PM CDT
Length of Visible Light 15h 54m
Length of Day
14h 46m
Tomorrow will be 2m 26s shorter.
Waxing Crescent, 18% of the Moon is Illuminated
Today
Waxing Crescent
Aug 3
First Quarter
Aug 10
Full
Aug 17
Last Quarter
Aug 25
New

Today's Extremes

State Highs State Lows

Community

WunderPhotos

Upload Photos

1,739,324 photos uploaded!

WunderBlogs® & News

Nearby

Snow Depth

Station Depth Elevation
Blind Park 0 in 6890 ft

Earthquake Activity

City Distance Mag. Time & Date
No recent earthquake activity has been reported nearby.
Minimum magnitude displayed is 2.5.

Coastal Water Temperatures

Place Temperature
No Stations Reporting

Nearby Weather Stations

Station Location Temp. Dew Point Humidity Wind Precip. Elev Updated Type
rural Roscoe, Roscoe, SD 63.5 °F 61 °F 93% West  at  1.9 mph 0.00 in / hr 1705 ft 8:42 AM CDT Rapid Fire

Show More Stations Show Fewer Stations